createdAt,value
2016-04-01T00:00:22.517Z,1007.64
2016-04-01T00:01:22.456Z,1007.6
2016-04-01T00:02:22.428Z,1007.6
2016-04-01T00:03:22.447Z,1007.56
2016-04-01T00:04:22.386Z,1007.56
2016-04-01T00:05:22.358Z,1007.61
2016-04-01T00:06:22.516Z,1007.58
2016-04-01T00:07:22.332Z,1007.57
2016-04-01T00:08:22.288Z,1007.56
2016-04-01T00:09:22.244Z,1007.58
2016-04-01T00:10:22.230Z,1007.63
2016-04-01T00:11:22.202Z,1007.65
2016-04-01T00:12:22.174Z,1007.66
2016-04-01T00:13:22.270Z,1007.72
2016-04-01T00:14:22.179Z,1007.72
2016-04-01T00:15:22.119Z,1007.72
2016-04-01T00:16:22.231Z,1007.77
2016-04-01T00:17:22.047Z,1007.78
2016-04-01T00:18:22.033Z,1007.78
2016-04-01T00:19:22.004Z,1007.77
2016-04-01T00:20:22.055Z,1007.77
2016-04-01T00:21:22.260Z,1007.77
2016-04-01T00:22:21.918Z,1007.79
2016-04-01T00:24:21.862Z,1007.76
2016-04-01T00:25:21.849Z,1007.74
2016-04-01T00:26:21.837Z,1007.76
2016-04-01T00:27:21.870Z,1007.77
2016-04-01T00:28:22.123Z,1007.78
2016-04-01T00:29:21.750Z,1007.82
2016-04-01T00:30:21.815Z,1007.79
2016-04-01T00:31:21.756Z,1007.84
2016-04-01T00:32:21.664Z,1007.82
2016-04-01T00:33:21.668Z,1007.82
2016-04-01T00:34:21.608Z,1007.85
2016-04-01T00:36:21.598Z,1007.95
2016-04-01T00:37:21.600Z,1007.99
2016-04-01T00:38:21.508Z,1007.99
2016-04-01T00:39:21.481Z,1008
2016-04-01T00:40:21.655Z,1007.99
2016-04-01T00:41:21.439Z,1007.96
2016-04-01T00:42:21.427Z,1007.95
2016-04-01T00:43:21.444Z,1007.94
2016-04-01T00:44:21.400Z,1007.96
2016-04-01T00:45:21.324Z,1007.87
2016-04-01T00:46:21.358Z,1007.87
2016-04-01T00:47:21.643Z,1007.85
2016-04-01T00:49:21.241Z,1007.92
2016-04-01T00:50:21.276Z,1007.91
2016-04-01T00:51:21.388Z,1007.89
2016-04-01T00:52:21.204Z,1007.84
2016-04-01T00:53:21.127Z,1007.8
2016-04-01T00:54:21.114Z,1007.77
2016-04-01T00:55:21.274Z,1007.79
2016-04-01T00:56:21.105Z,1007.77
2016-04-01T00:57:21.060Z,1007.81
2016-04-01T00:58:21.001Z,1007.83
2016-04-01T00:59:20.972Z,1007.79
2016-04-01T01:00:20.943Z,1007.79
2016-04-01T01:01:21.149Z,1007.81
2016-04-01T01:02:20.934Z,1007.77
2016-04-01T01:03:20.983Z,1007.76
2016-04-01T01:04:21.032Z,1007.81
2016-04-01T01:05:20.879Z,1007.81
2016-04-01T01:06:20.787Z,1007.87
2016-04-01T01:07:20.869Z,1007.87
2016-04-01T01:08:20.824Z,1007.95
2016-04-01T01:09:20.717Z,1007.97
2016-04-01T01:10:20.720Z,1008.01
2016-04-01T01:11:20.723Z,1008.06
2016-04-01T01:12:20.678Z,1008.09
2016-04-01T01:13:21.135Z,1008.1
2016-04-01T01:14:20.622Z,1008.09
2016-04-01T01:15:20.593Z,1008.11
2016-04-01T01:16:20.533Z,1008.14
2016-04-01T01:17:20.505Z,1008.14
2016-04-01T01:18:21.226Z,1008.14
2016-04-01T01:19:20.447Z,1008.14
2016-04-01T01:20:20.435Z,1008.15
2016-04-01T01:21:20.390Z,1008.18
2016-04-01T01:22:20.362Z,1008.17
2016-04-01T01:23:20.396Z,1008.18
2016-04-01T01:24:20.367Z,1008.22
2016-04-01T01:25:20.292Z,1008.27
2016-04-01T01:26:20.295Z,1008.29
2016-04-01T01:27:20.312Z,1008.32
2016-04-01T01:28:20.675Z,1008.3
2016-04-01T01:29:20.209Z,1008.3
2016-04-01T01:30:20.290Z,1008.29
2016-04-01T01:31:20.479Z,1008.29
2016-04-01T01:32:20.139Z,1008.3
2016-04-01T01:33:20.329Z,1008.32
2016-04-01T01:34:20.081Z,1008.34
2016-04-01T01:35:20.194Z,1008.38
2016-04-01T01:36:20.008Z,1008.44
2016-04-01T01:37:20.230Z,1008.39
2016-04-01T01:38:19.952Z,1008.47
2016-04-01T01:39:20.001Z,1008.5
2016-04-01T01:40:20.128Z,1008.52
2016-04-01T01:41:20.241Z,1008.6
2016-04-01T01:42:20.119Z,1008.6
2016-04-01T01:43:19.996Z,1008.64
2016-04-01T01:44:20.077Z,1008.62
2016-04-01T01:45:19.798Z,1008.63
2016-04-01T01:46:19.802Z,1008.63
2016-04-01T01:47:20.069Z,1008.63
2016-04-01T01:48:20.057Z,1008.62
2016-04-01T01:49:19.825Z,1008.64
2016-04-01T01:50:19.780Z,1008.62
2016-04-01T01:51:19.877Z,1008.64
2016-04-01T01:52:19.818Z,1008.69
2016-04-01T01:53:19.757Z,1008.67
2016-04-01T01:54:20.026Z,1008.68
2016-04-01T01:55:19.888Z,1008.69
2016-04-01T01:56:19.610Z,1008.68
2016-04-01T01:57:19.878Z,1008.72
2016-04-01T01:58:19.537Z,1008.71
2016-04-01T01:59:19.555Z,1008.71
2016-04-01T02:00:19.620Z,1008.72
2016-04-01T02:01:19.482Z,1008.78
2016-04-01T02:02:19.531Z,1008.74
2016-04-01T02:03:19.675Z,1008.78
2016-04-01T02:04:19.475Z,1008.84
2016-04-01T02:05:19.539Z,1008.9
2016-04-01T02:06:19.589Z,1008.93
2016-04-01T02:07:19.248Z,1008.95
2016-04-01T02:08:19.178Z,1009.02
2016-04-01T02:09:19.461Z,1009.01
2016-04-01T02:10:19.464Z,1009
2016-04-01T02:11:19.108Z,1008.96
2016-04-01T02:12:19.064Z,1008.92
2016-04-01T02:13:19.035Z,1008.91
2016-04-01T02:14:19.241Z,1008.89
2016-04-01T02:15:19.024Z,1008.91
2016-04-01T02:16:19.043Z,1008.92
2016-04-01T02:17:18.999Z,1008.94
2016-04-01T02:18:18.924Z,1008.94
2016-04-01T02:19:18.911Z,1008.95
2016-04-01T02:20:18.944Z,1008.92
2016-04-01T02:21:18.837Z,1008.96
2016-04-01T02:22:18.949Z,1008.94
2016-04-01T02:23:18.906Z,1008.97
2016-04-01T02:24:18.924Z,1009.05
2016-04-01T02:25:19.082Z,1009.12
2016-04-01T02:26:18.835Z,1009.12
2016-04-01T02:27:18.776Z,1009.15
2016-04-01T02:28:18.654Z,1009.16
2016-04-01T02:29:18.626Z,1009.14
2016-04-01T02:30:18.721Z,1009.13
2016-04-01T02:31:18.599Z,1009.12
2016-04-01T02:32:18.617Z,1009.16
2016-04-01T02:33:18.542Z,1009.19
2016-04-01T02:34:18.513Z,1009.17
2016-04-01T02:35:18.578Z,1009.23
2016-04-01T02:36:18.456Z,1009.22
2016-04-01T02:37:18.428Z,1009.28
2016-04-01T02:38:18.400Z,1009.28
2016-04-01T02:39:18.370Z,1009.34
2016-04-01T02:40:18.342Z,1009.33
2016-04-01T02:41:18.313Z,1009.38
2016-04-01T02:42:18.300Z,1009.41
2016-04-01T02:43:18.271Z,1009.42
2016-04-01T02:44:18.258Z,1009.39
2016-04-01T02:45:18.215Z,1009.41
2016-04-01T02:46:18.232Z,1009.46
2016-04-01T02:47:18.220Z,1009.51
2016-04-01T02:48:18.160Z,1009.56
2016-04-01T02:49:18.115Z,1009.57
2016-04-01T02:50:18.103Z,1009.61
2016-04-01T02:51:18.184Z,1009.59
2016-04-01T02:52:18.030Z,1009.6
2016-04-01T02:53:18.002Z,1009.57
2016-04-01T02:54:17.974Z,1009.57
2016-04-01T02:55:17.976Z,1009.54
2016-04-01T02:56:17.932Z,1009.52
2016-04-01T02:57:17.904Z,1009.52
2016-04-01T02:58:17.875Z,1009.54
2016-04-01T02:59:17.893Z,1009.52
2016-04-01T03:00:17.834Z,1009.5
2016-04-01T03:01:17.804Z,1009.49
2016-04-01T03:02:17.792Z,1009.49
2016-04-01T03:03:17.748Z,1009.47
2016-04-01T03:04:17.734Z,1009.46
2016-04-01T03:05:17.690Z,1009.43
2016-04-01T03:06:17.661Z,1009.44
2016-04-01T03:07:17.650Z,1009.46
2016-04-01T03:08:18.105Z,1009.4
2016-04-01T03:09:17.591Z,1009.38
2016-04-01T03:10:17.611Z,1009.35
2016-04-01T03:11:17.535Z,1009.3
2016-04-01T03:12:17.522Z,1009.34
2016-04-01T03:13:17.494Z,1009.32
2016-04-01T03:14:18.402Z,1009.25
2016-04-01T03:15:17.436Z,1009.24
2016-04-01T03:16:17.407Z,1009.31
2016-04-01T03:17:17.379Z,1009.36
2016-04-01T03:18:17.349Z,1009.34
2016-04-01T03:19:17.352Z,1009.36
2016-04-01T03:20:17.480Z,1009.32
2016-04-01T03:21:17.796Z,1009.38
2016-04-01T03:22:17.252Z,1009.35
2016-04-01T03:23:17.223Z,1009.37
2016-04-01T03:24:17.226Z,1009.35
2016-04-01T03:25:17.776Z,1009.33
2016-04-01T03:26:17.153Z,1009.29
2016-04-01T03:27:17.124Z,1009.3
2016-04-01T03:28:17.299Z,1009.29
2016-04-01T03:29:17.068Z,1009.3
2016-04-01T03:30:17.039Z,1009.3
2016-04-01T03:31:17.026Z,1009.28
2016-04-01T03:32:17.045Z,1009.23
2016-04-01T03:33:16.970Z,1009.21
2016-04-01T03:34:16.939Z,1009.22
2016-04-01T03:35:16.927Z,1009.18
2016-04-01T03:36:17.039Z,1009.16
2016-04-01T03:37:16.886Z,1009.19
2016-04-01T03:38:17.076Z,1009.14
2016-04-01T03:39:16.797Z,1009.18
2016-04-01T03:40:16.784Z,1009.13
2016-04-01T03:41:16.866Z,1009.13
2016-04-01T03:42:16.758Z,1009.1
2016-04-01T03:43:16.699Z,1009.04
2016-04-01T03:44:16.670Z,1009.06
2016-04-01T03:45:16.673Z,1009.05
2016-04-01T03:46:16.629Z,1009.08
2016-04-01T03:47:16.600Z,1009.05
2016-04-01T03:48:16.603Z,1009.06
2016-04-01T03:49:16.543Z,1009.12
2016-04-01T03:50:16.546Z,1009.11
2016-04-01T03:51:16.502Z,1009.16
2016-04-01T03:52:16.473Z,1009.24
2016-04-01T03:53:16.444Z,1009.25
2016-04-01T03:54:16.432Z,1009.27
2016-04-01T03:55:16.435Z,1009.26
2016-04-01T03:56:16.406Z,1009.28
2016-04-01T03:57:16.345Z,1009.3
2016-04-01T03:58:16.457Z,1009.29
2016-04-01T03:59:16.335Z,1009.33
2016-04-01T04:00:16.259Z,1009.41
2016-04-01T04:01:16.231Z,1009.45
2016-04-01T04:02:16.218Z,1009.48
2016-04-01T04:03:16.237Z,1009.52
2016-04-01T04:04:16.178Z,1009.48
2016-04-01T04:05:16.133Z,1009.54
2016-04-01T04:06:16.104Z,1009.57
2016-04-01T04:07:16.076Z,1009.54
2016-04-01T04:08:16.063Z,1009.58
2016-04-01T04:09:16.019Z,1009.58
2016-04-01T04:10:16.069Z,1009.62
2016-04-01T04:11:15.977Z,1009.63
2016-04-01T04:12:15.949Z,1009.57
2016-04-01T04:13:15.936Z,1009.59
2016-04-01T04:14:15.891Z,1009.61
2016-04-01T04:15:15.863Z,1009.63
2016-04-01T04:16:15.835Z,1009.64
2016-04-01T04:17:15.838Z,1009.67
2016-04-01T04:18:15.793Z,1009.74
2016-04-01T04:19:15.780Z,1009.75
2016-04-01T04:20:15.736Z,1009.74
2016-04-01T04:21:15.738Z,1009.74
2016-04-01T04:22:15.694Z,1009.76
2016-04-01T04:23:15.666Z,1009.79
2016-04-01T04:24:15.653Z,1009.79
2016-04-01T04:25:15.609Z,1009.79
2016-04-01T04:26:15.580Z,1009.82
2016-04-01T04:27:15.552Z,1009.85
2016-04-01T04:28:15.539Z,1009.84
2016-04-01T04:29:15.510Z,1009.85
2016-04-01T04:30:15.482Z,1009.86
2016-04-01T04:31:15.657Z,1009.84
2016-04-01T04:32:15.659Z,1009.89
2016-04-01T04:33:15.552Z,1009.92
2016-04-01T04:34:15.648Z,1009.9
2016-04-01T04:35:15.339Z,1009.98
2016-04-01T04:36:15.342Z,1009.99
2016-04-01T04:37:15.297Z,1010.03
2016-04-01T04:38:15.269Z,1010.07
2016-04-01T04:39:15.240Z,1010.13
2016-04-01T04:40:15.211Z,1010.14
2016-04-01T04:41:15.198Z,1010.17
2016-04-01T04:42:15.170Z,1010.25
2016-04-01T04:43:15.142Z,1010.28
2016-04-01T04:44:15.114Z,1010.31
2016-04-01T04:45:15.084Z,1010.35
2016-04-01T04:46:15.056Z,1010.42
2016-04-01T04:47:15.043Z,1010.48
2016-04-01T04:48:15.092Z,1010.54
2016-04-01T04:49:14.986Z,1010.53
2016-04-01T04:50:14.957Z,1010.55
2016-04-01T04:51:14.929Z,1010.57
2016-04-01T04:52:14.932Z,1010.58
2016-04-01T04:53:14.887Z,1010.62
2016-04-01T04:54:14.843Z,1010.66
2016-04-01T04:55:14.815Z,1010.63
2016-04-01T04:56:14.848Z,1010.64
2016-04-01T04:57:14.774Z,1010.59
2016-04-01T04:58:14.854Z,1010.68
2016-04-01T04:59:14.715Z,1010.7
2016-04-01T05:00:14.688Z,1010.74
2016-04-01T05:01:14.737Z,1010.76
2016-04-01T05:02:14.629Z,1010.8
2016-04-01T05:03:14.774Z,1010.83
2016-04-01T05:04:14.714Z,1010.8
2016-04-01T05:05:14.560Z,1010.84
2016-04-01T05:06:14.625Z,1010.85
2016-04-01T05:07:14.659Z,1010.83
2016-04-01T05:08:14.724Z,1010.83
2016-04-01T05:09:14.461Z,1010.83
2016-04-01T05:10:14.433Z,1010.85
2016-04-01T05:11:14.404Z,1010.89
2016-04-01T05:12:14.391Z,1010.91
2016-04-01T05:13:14.364Z,1010.96
2016-04-01T05:14:14.366Z,1011
2016-04-01T05:15:14.446Z,1011
2016-04-01T05:16:14.559Z,1011
2016-04-01T05:17:14.592Z,1010.99
2016-04-01T05:18:14.422Z,1011.01
2016-04-01T05:19:14.191Z,1011.03
2016-04-01T05:20:14.366Z,1010.97
2016-04-01T05:21:14.135Z,1011
2016-04-01T05:22:14.184Z,1010.99
2016-04-01T05:23:14.155Z,1011.04
2016-04-01T05:24:14.221Z,1011.08
2016-04-01T05:25:14.036Z,1011.11
2016-04-01T05:26:14.008Z,1011.16
2016-04-01T05:27:13.979Z,1011.15
2016-04-01T05:28:13.965Z,1011.16
2016-04-01T05:29:13.937Z,1011.15
2016-04-01T05:30:13.909Z,1011.18
2016-04-01T05:31:13.880Z,1011.15
2016-04-01T05:32:13.835Z,1011.16
2016-04-01T05:33:13.823Z,1011.2
2016-04-01T05:34:13.810Z,1011.18
2016-04-01T05:35:13.765Z,1011.21
2016-04-01T05:36:13.737Z,1011.23
2016-04-01T05:37:13.724Z,1011.25
2016-04-01T05:38:13.681Z,1011.23
2016-04-01T05:39:13.652Z,1011.24
2016-04-01T05:40:13.639Z,1011.23
2016-04-01T05:41:13.656Z,1011.27
2016-04-01T05:42:13.582Z,1011.28
2016-04-01T05:43:13.662Z,1011.26
2016-04-01T05:44:13.540Z,1011.3
2016-04-01T05:45:13.511Z,1011.32
2016-04-01T05:46:13.498Z,1011.37
2016-04-01T05:47:13.470Z,1011.35
2016-04-01T05:48:13.426Z,1011.34
2016-04-01T05:49:13.413Z,1011.4
2016-04-01T05:50:13.383Z,1011.33
2016-04-01T05:51:13.371Z,1011.36
2016-04-01T05:52:13.327Z,1011.34
2016-04-01T05:53:13.299Z,1011.41
2016-04-01T05:54:13.302Z,1011.41
2016-04-01T05:55:13.272Z,1011.4
2016-04-01T05:56:13.213Z,1011.42
2016-04-01T05:57:13.200Z,1011.46
2016-04-01T05:58:13.171Z,1011.45
2016-04-01T05:59:13.158Z,1011.43
2016-04-01T06:00:13.115Z,1011.45
2016-04-01T06:01:13.085Z,1011.44
2016-04-01T06:02:13.058Z,1011.39
2016-04-01T06:03:13.028Z,1011.38
2016-04-01T06:04:13.000Z,1011.39
2016-04-01T06:05:12.971Z,1011.47
2016-04-01T06:06:13.051Z,1011.48
2016-04-01T06:07:12.930Z,1011.51
2016-04-01T06:08:12.905Z,1011.51
2016-04-01T06:09:12.892Z,1011.54
2016-04-01T06:10:12.849Z,1011.59
2016-04-01T06:11:12.820Z,1011.56
2016-04-01T06:12:12.791Z,1011.55
2016-04-01T06:13:12.763Z,1011.56
2016-04-01T06:14:12.797Z,1011.55
2016-04-01T06:15:12.738Z,1011.57
2016-04-01T06:16:12.693Z,1011.53
2016-04-01T06:17:12.664Z,1011.54
2016-04-01T06:18:12.651Z,1011.54
2016-04-01T06:19:12.607Z,1011.56
2016-04-01T06:20:12.641Z,1011.58
2016-04-01T06:21:12.612Z,1011.54
2016-04-01T06:22:12.536Z,1011.57
2016-04-01T06:23:12.554Z,1011.55
2016-04-01T06:24:12.496Z,1011.54
2016-04-01T06:25:12.451Z,1011.61
2016-04-01T06:26:12.437Z,1011.59
2016-04-01T06:27:12.425Z,1011.59
2016-04-01T06:28:12.412Z,1011.55
2016-04-01T06:29:12.353Z,1011.49
2016-04-01T06:30:12.339Z,1011.57
2016-04-01T06:31:12.295Z,1011.54
2016-04-01T06:32:12.267Z,1011.51
2016-04-01T06:33:12.301Z,1011.52
2016-04-01T06:34:12.226Z,1011.53
2016-04-01T06:35:12.244Z,1011.58
2016-04-01T06:36:12.184Z,1011.6
2016-04-01T06:37:12.156Z,1011.66
2016-04-01T06:38:12.111Z,1011.71
2016-04-01T06:39:12.114Z,1011.73
2016-04-01T06:40:12.070Z,1011.72
2016-04-01T06:41:12.057Z,1011.77
2016-04-01T06:42:12.013Z,1011.8
2016-04-01T06:43:11.999Z,1011.84
2016-04-01T06:44:11.955Z,1011.88
2016-04-01T06:45:11.943Z,1011.95
2016-04-01T06:46:11.913Z,1011.96
2016-04-01T06:47:12.213Z,1011.98
2016-04-01T06:48:11.966Z,1012
2016-04-01T06:49:11.829Z,1012.04
2016-04-01T06:50:12.222Z,1012.08
2016-04-01T06:51:12.115Z,1012.09
2016-04-01T06:52:11.758Z,1012.04
2016-04-01T06:53:11.777Z,1012.04
2016-04-01T06:54:11.701Z,1012.05
2016-04-01T06:55:11.673Z,1012.01
2016-04-01T06:56:11.644Z,1012.04
2016-04-01T06:57:11.615Z,1012
2016-04-01T06:58:11.603Z,1011.99
2016-04-01T06:59:11.558Z,1012.02
2016-04-01T07:00:11.545Z,1012.01
2016-04-01T07:01:11.579Z,1012.07
2016-04-01T07:02:11.864Z,1012.08
2016-04-01T07:04:11.697Z,1012.07
2016-04-01T07:05:11.418Z,1012.15
2016-04-01T07:06:11.500Z,1012.15
2016-04-01T07:07:11.361Z,1012.16
2016-04-01T07:08:11.332Z,1012.23
2016-04-01T07:09:11.897Z,1012.24
2016-04-01T07:10:12.353Z,1012.2
2016-04-01T07:11:11.263Z,1012.25
2016-04-01T07:12:11.234Z,1012.27
2016-04-01T07:13:11.221Z,1012.28
2016-04-01T07:14:11.192Z,1012.38
2016-04-01T07:15:11.148Z,1012.37
2016-04-01T07:16:11.244Z,1012.35
2016-04-01T07:17:11.107Z,1012.31
2016-04-01T07:18:11.438Z,1012.36
2016-04-01T07:19:11.097Z,1012.37
2016-04-01T07:20:11.444Z,1012.38
2016-04-01T07:21:10.993Z,1012.39
2016-04-01T07:22:10.979Z,1012.45
2016-04-01T07:23:11.091Z,1012.45
2016-04-01T07:24:10.986Z,1012.47
2016-04-01T07:25:10.909Z,1012.51
2016-04-01T07:26:10.912Z,1012.44
2016-04-01T07:27:10.884Z,1012.49
2016-04-01T07:28:10.824Z,1012.51
2016-04-01T07:29:10.795Z,1012.55
2016-04-01T07:30:10.783Z,1012.51
2016-04-01T07:31:10.738Z,1012.58
2016-04-01T07:32:10.787Z,1012.58
2016-04-01T07:33:10.807Z,1012.58
2016-04-01T07:34:10.778Z,1012.62
2016-04-01T07:35:10.656Z,1012.61
2016-04-01T07:36:10.737Z,1012.64
2016-04-01T07:37:10.584Z,1012.63
2016-04-01T07:38:10.773Z,1012.64
2016-04-01T07:39:10.542Z,1012.61
2016-04-01T07:40:10.717Z,1012.65
2016-04-01T07:41:10.703Z,1012.68
2016-04-01T07:42:10.550Z,1012.66
2016-04-01T07:43:10.443Z,1012.69
2016-04-01T07:44:10.401Z,1012.7
2016-04-01T07:45:10.387Z,1012.68
2016-04-01T07:46:10.328Z,1012.7
2016-04-01T07:47:10.659Z,1012.72
2016-04-01T07:48:10.271Z,1012.72
2016-04-01T07:49:10.221Z,1012.67
2016-04-01T07:50:10.234Z,1012.72
2016-04-01T07:51:10.184Z,1012.73
2016-04-01T07:52:10.229Z,1012.73
2016-04-01T07:53:10.117Z,1012.75
2016-04-01T07:54:10.069Z,1012.73
2016-04-01T07:55:10.086Z,1012.75
2016-04-01T07:56:10.118Z,1012.72
2016-04-01T07:57:09.963Z,1012.78
2016-04-01T07:58:09.995Z,1012.8
2016-04-01T07:59:09.950Z,1012.83
2016-04-01T08:00:09.890Z,1012.84
2016-04-01T08:01:09.876Z,1012.85
2016-04-01T08:02:09.894Z,1012.83
2016-04-01T08:03:09.833Z,1012.87
2016-04-01T08:04:09.914Z,1012.86
2016-04-01T08:05:09.837Z,1012.85
2016-04-01T08:06:09.793Z,1012.86
2016-04-01T08:07:09.717Z,1012.9
2016-04-01T08:08:09.688Z,1012.91
2016-04-01T08:09:09.832Z,1012.94
2016-04-01T08:10:09.646Z,1012.93
2016-04-01T08:11:09.602Z,1012.97
2016-04-01T08:12:09.605Z,1013.01
2016-04-01T08:13:09.562Z,1013.03
2016-04-01T08:14:09.626Z,1013.03
2016-04-01T08:15:09.738Z,1013.06
2016-04-01T08:16:09.476Z,1013.09
2016-04-01T08:17:09.884Z,1013.12
2016-04-01T08:18:09.465Z,1013.14
2016-04-01T08:19:09.515Z,1013.13
2016-04-01T08:20:09.517Z,1013.14
2016-04-01T08:21:09.848Z,1013.17
2016-04-01T08:22:09.381Z,1013.19
2016-04-01T08:23:09.572Z,1013.22
2016-04-01T08:24:09.403Z,1013.22
2016-04-01T08:25:09.281Z,1013.24
2016-04-01T08:26:09.236Z,1013.23
2016-04-01T08:27:09.269Z,1013.26
2016-04-01T08:28:09.194Z,1013.29
2016-04-01T08:29:09.183Z,1013.29
2016-04-01T08:30:09.138Z,1013.3
2016-04-01T08:31:09.110Z,1013.31
2016-04-01T08:32:09.081Z,1013.31
2016-04-01T08:33:09.052Z,1013.33
2016-04-01T08:34:09.024Z,1013.33
2016-04-01T08:35:09.199Z,1013.34
2016-04-01T08:36:08.966Z,1013.31
2016-04-01T08:37:08.938Z,1013.39
2016-04-01T08:38:08.910Z,1013.4
2016-04-01T08:39:08.912Z,1013.43
2016-04-01T08:40:08.899Z,1013.42
2016-04-01T08:41:09.105Z,1013.44
2016-04-01T08:42:09.170Z,1013.4
2016-04-01T08:43:08.798Z,1013.47
2016-04-01T08:44:08.785Z,1013.48
2016-04-01T08:45:08.741Z,1013.51
2016-04-01T08:46:08.712Z,1013.51
2016-04-01T08:47:08.887Z,1013.5
2016-04-01T08:48:08.687Z,1013.54
2016-04-01T08:49:08.658Z,1013.6
2016-04-01T08:50:08.629Z,1013.57
2016-04-01T08:51:08.585Z,1013.62
2016-04-01T08:52:08.573Z,1013.62
2016-04-01T08:53:08.637Z,1013.57
2016-04-01T08:54:08.578Z,1013.59
2016-04-01T08:55:08.487Z,1013.6
2016-04-01T08:56:08.458Z,1013.64
2016-04-01T08:57:08.492Z,1013.63
2016-04-01T08:58:08.400Z,1013.6
2016-04-01T08:59:08.388Z,1013.65
2016-04-01T09:00:08.719Z,1013.63
2016-04-01T09:01:08.486Z,1013.68
2016-04-01T09:02:08.302Z,1013.7
2016-04-01T09:03:10.414Z,1013.7
2016-04-01T09:05:09.513Z,1013.74
2016-04-01T09:07:08.613Z,1013.73
2016-04-01T09:08:08.537Z,1013.75
2016-04-01T09:09:08.133Z,1013.77
2016-04-01T09:10:08.121Z,1013.8
2016-04-01T09:11:08.092Z,1013.81
2016-04-01T09:12:08.079Z,1013.84
2016-04-01T09:13:08.082Z,1013.84
2016-04-01T09:14:08.131Z,1013.83
2016-04-01T09:15:08.024Z,1013.87
2016-04-01T09:16:07.981Z,1013.87
2016-04-01T09:17:07.952Z,1013.86
2016-04-01T09:18:08.189Z,1013.89
2016-04-01T09:20:08.179Z,1013.96
2016-04-01T09:21:08.040Z,1013.93
2016-04-01T09:22:07.825Z,1013.95
2016-04-01T09:23:07.795Z,1013.98
2016-04-01T09:24:07.814Z,1013.97
2016-04-01T09:25:07.739Z,1014.01
2016-04-01T09:26:07.710Z,1014.05
2016-04-01T09:27:07.697Z,1014.03
2016-04-01T09:28:07.684Z,1014.06
2016-04-01T09:29:07.640Z,1014.04
2016-04-01T09:30:07.939Z,1013.99
2016-04-01T09:31:07.630Z,1014.02
2016-04-01T09:32:07.711Z,1014.01
2016-04-01T09:33:07.620Z,1014.04
2016-04-01T09:34:07.530Z,1014.03
2016-04-01T09:35:08.094Z,1014.08
2016-04-01T09:36:07.500Z,1014.06
2016-04-01T09:37:07.456Z,1014.05
2016-04-01T09:38:07.553Z,1014.1
2016-04-01T09:39:07.415Z,1014.1
2016-04-01T09:40:07.418Z,1014.12
2016-04-01T09:41:07.341Z,1014.1
2016-04-01T09:42:07.438Z,1014.14
2016-04-01T09:43:07.316Z,1014.11
2016-04-01T09:44:07.304Z,1014.17
2016-04-01T09:45:07.243Z,1014.17
2016-04-01T09:46:07.418Z,1014.14
2016-04-01T09:47:07.577Z,1014.14
2016-04-01T09:48:07.174Z,1014.11
2016-04-01T09:49:07.396Z,1014.15
2016-04-01T09:50:07.148Z,1014.14
2016-04-01T09:51:07.416Z,1014.15
2016-04-01T09:52:07.075Z,1014.19
2016-04-01T09:53:07.078Z,1014.17
2016-04-01T09:54:07.267Z,1014.15
2016-04-01T09:55:07.004Z,1014.24
2016-04-01T09:57:07.089Z,1014.24
2016-04-01T09:58:06.919Z,1014.25
2016-04-01T09:59:07.094Z,1014.24
2016-04-01T10:00:07.175Z,1014.25
2016-04-01T10:01:06.911Z,1014.24
2016-04-01T10:02:06.852Z,1014.24
2016-04-01T10:03:06.838Z,1014.28
2016-04-01T10:04:06.966Z,1014.28
2016-04-01T10:05:06.750Z,1014.27
2016-04-01T10:06:06.752Z,1014.25
2016-04-01T10:07:06.833Z,1014.28
2016-04-01T10:08:06.696Z,1014.29
2016-04-01T10:09:06.683Z,1014.31
2016-04-01T10:10:06.639Z,1014.29
2016-04-01T10:11:06.627Z,1014.34
2016-04-01T10:12:06.629Z,1014.35
2016-04-01T10:13:06.585Z,1014.38
2016-04-01T10:14:06.540Z,1014.4
2016-04-01T10:15:06.512Z,1014.4
2016-04-01T10:16:06.592Z,1014.43
2016-04-01T10:17:06.610Z,1014.41
2016-04-01T10:18:06.441Z,1014.38
2016-04-01T10:19:06.538Z,1014.37
2016-04-01T10:21:06.949Z,1014.34
2016-04-01T10:22:06.359Z,1014.38
2016-04-01T10:23:06.533Z,1014.39
2016-04-01T10:24:06.301Z,1014.41
2016-04-01T10:25:06.273Z,1014.38
2016-04-01T10:26:10.244Z,1014.37
2016-04-01T10:27:06.247Z,1014.36
2016-04-01T10:28:06.186Z,1014.35
2016-04-01T10:29:06.190Z,1014.36
2016-04-01T10:30:06.161Z,1014.34
2016-04-01T10:31:06.133Z,1014.3
2016-04-01T10:32:06.150Z,1014.34
2016-04-01T10:33:06.091Z,1014.3
2016-04-01T10:34:06.063Z,1014.31
2016-04-01T10:35:06.081Z,1014.35
2016-04-01T10:36:06.006Z,1014.32
2016-04-01T10:37:05.993Z,1014.32
2016-04-01T10:38:05.995Z,1014.25
2016-04-01T10:39:05.952Z,1014.27
2016-04-01T10:40:05.907Z,1014.25
2016-04-01T10:41:06.019Z,1014.27
2016-04-01T10:42:05.865Z,1014.29
2016-04-01T10:43:05.837Z,1014.25
2016-04-01T10:44:05.840Z,1014.21
2016-04-01T10:45:05.874Z,1014.24
2016-04-01T10:46:05.783Z,1014.22
2016-04-01T10:47:05.754Z,1014.19
2016-04-01T10:48:05.726Z,1014.29
2016-04-01T10:49:05.915Z,1014.26
2016-04-01T10:50:05.699Z,1014.23
2016-04-01T10:51:05.686Z,1014.23
2016-04-01T10:52:05.657Z,1014.2
2016-04-01T10:53:05.676Z,1014.23
2016-04-01T10:54:05.632Z,1014.18
2016-04-01T10:55:05.557Z,1014.2
2016-04-01T10:56:05.528Z,1014.18
2016-04-01T10:57:05.500Z,1014.19
2016-04-01T10:58:05.502Z,1014.21
2016-04-01T10:59:05.458Z,1014.18
2016-04-01T11:00:06.242Z,1014.16
2016-04-01T11:01:05.448Z,1014.11
2016-04-01T11:02:05.372Z,1014.1
2016-04-01T11:03:05.375Z,1014.11
2016-04-01T11:04:05.347Z,1014.09
2016-04-01T11:05:05.333Z,1014.08
2016-04-01T11:06:05.289Z,1014.09
2016-04-01T11:07:05.260Z,1014.08
2016-04-01T11:08:05.334Z,1014.11
2016-04-01T11:09:05.322Z,1014.14
2016-04-01T11:10:05.231Z,1014.14
2016-04-01T11:11:05.156Z,1014.13
2016-04-01T11:12:05.158Z,1014.17
2016-04-01T11:13:05.536Z,1014.2
2016-04-01T11:14:05.085Z,1014.17
2016-04-01T11:15:05.775Z,1014.16
2016-04-01T11:16:05.059Z,1014.09
2016-04-01T11:17:05.047Z,1014.13
2016-04-01T11:18:05.034Z,1014.08
2016-04-01T11:19:05.786Z,1014.08
2016-04-01T11:21:05.135Z,1014.08
2016-04-01T11:22:04.904Z,1014.07
2016-04-01T11:23:04.968Z,1014.06
2016-04-01T11:25:04.849Z,1014.07
2016-04-01T11:26:04.852Z,1014.03
2016-04-01T11:27:04.808Z,1014.04
2016-04-01T11:28:04.763Z,1014.01
2016-04-01T11:29:05.204Z,1014.02
2016-04-01T11:30:04.971Z,1014
2016-04-01T11:31:04.724Z,1014.03
2016-04-01T11:32:04.680Z,1014.03
2016-04-01T11:33:04.667Z,1013.99
2016-04-01T11:34:07.701Z,1014.02
2016-04-01T11:35:04.610Z,1014.01
2016-04-01T11:36:04.582Z,1013.98
2016-04-01T11:37:04.584Z,1014.01
2016-04-01T11:38:04.540Z,1013.97
2016-04-01T11:39:04.495Z,1013.96
2016-04-01T11:40:04.655Z,1013.95
2016-04-01T11:41:04.548Z,1013.95
2016-04-01T11:42:04.567Z,1013.89
2016-04-01T11:43:04.507Z,1013.97
2016-04-01T11:44:04.384Z,1013.87
2016-04-01T11:45:04.481Z,1013.88
2016-04-01T11:46:04.844Z,1013.94
2016-04-01T11:47:04.299Z,1013.9
2016-04-01T11:48:04.333Z,1013.92
2016-04-01T11:49:04.382Z,1013.9
2016-04-01T11:50:04.261Z,1013.95
2016-04-01T11:51:04.435Z,1013.9
2016-04-01T11:52:04.360Z,1013.88
2016-04-01T11:53:04.175Z,1013.83
2016-04-01T11:54:04.161Z,1013.86
2016-04-01T11:55:04.133Z,1013.86
2016-04-01T11:56:04.135Z,1013.91
2016-04-01T11:57:04.091Z,1013.87
2016-04-01T11:58:04.109Z,1013.9
2016-04-01T11:59:04.049Z,1013.81
2016-04-01T12:00:04.021Z,1013.78
2016-04-01T12:01:04.071Z,1013.75
2016-04-01T12:02:04.012Z,1013.73
2016-04-01T12:03:03.951Z,1013.63
2016-04-01T12:04:03.923Z,1013.67
2016-04-01T12:05:03.909Z,1013.7
2016-04-01T12:06:03.881Z,1013.65
2016-04-01T12:07:03.884Z,1013.61
2016-04-01T12:08:03.981Z,1013.67
2016-04-01T12:09:03.796Z,1013.65
2016-04-01T12:10:03.876Z,1013.67
2016-04-01T12:11:03.817Z,1013.62
2016-04-01T12:12:03.928Z,1013.56
2016-04-01T12:13:04.181Z,1013.56
2016-04-01T12:14:03.933Z,1013.6
2016-04-01T12:15:03.764Z,1013.61
2016-04-01T12:16:03.970Z,1013.64
2016-04-01T12:17:03.739Z,1013.65
2016-04-01T12:18:03.648Z,1013.69
2016-04-01T12:19:03.745Z,1013.67